createdAt,value
2018-03-17T00:00:30.401Z,85.00
2018-03-17T00:02:58.618Z,84.90
2018-03-17T00:05:27.613Z,84.70
2018-03-17T00:07:56.561Z,84.70
2018-03-17T00:10:24.778Z,84.70
2018-03-17T00:12:52.887Z,84.80
2018-03-17T00:15:21.131Z,84.90
2018-03-17T00:17:49.237Z,84.90
2018-03-17T00:20:17.366Z,84.80
2018-03-17T00:22:45.540Z,84.50
2018-03-17T00:25:13.711Z,84.50
2018-03-17T00:27:42.613Z,84.20
2018-03-17T00:30:10.720Z,84.30
2018-03-17T00:32:38.842Z,84.20
2018-03-17T00:35:06.957Z,84.50
2018-03-17T00:37:35.086Z,84.50
2018-03-17T00:40:03.213Z,84.40
2018-03-17T00:42:31.431Z,84.30
2018-03-17T00:44:59.605Z,84.20
2018-03-17T00:47:27.722Z,83.60
2018-03-17T00:49:55.856Z,83.30
2018-03-17T00:52:24.003Z,83.30
2018-03-17T00:54:52.193Z,83.60
2018-03-17T00:57:21.151Z,83.90
2018-03-17T00:59:50.175Z,84.00
2018-03-17T01:02:19.065Z,84.00
2018-03-17T01:04:47.951Z,84.00
2018-03-17T01:07:16.228Z,83.90
2018-03-17T01:09:45.091Z,83.70
2018-03-17T01:12:14.018Z,83.70
2018-03-17T01:14:42.185Z,83.70
2018-03-17T01:17:10.302Z,83.60
2018-03-17T01:19:38.527Z,83.50
2018-03-17T01:22:06.700Z,83.40
2018-03-17T01:24:34.818Z,83.40
2018-03-17T01:27:02.920Z,83.40
2018-03-17T01:29:31.061Z,83.30
2018-03-17T01:31:59.186Z,83.20
2018-03-17T01:34:27.291Z,83.10
2018-03-17T01:36:55.532Z,83.30
2018-03-17T01:39:24.419Z,83.50
2018-03-17T01:41:52.593Z,83.40
2018-03-17T01:44:21.485Z,83.60
2018-03-17T01:46:50.436Z,83.70
2018-03-17T01:49:19.569Z,83.70
2018-03-17T01:51:48.459Z,83.50
2018-03-17T01:54:29.232Z,83.30
2018-03-17T01:56:58.094Z,83.10
2018-03-17T01:59:26.977Z,83.30
2018-03-17T02:01:55.862Z,83.40
2018-03-17T02:04:24.736Z,83.30
2018-03-17T02:06:52.875Z,83.90
2018-03-17T02:09:21.128Z,83.00
2018-03-17T02:11:50.121Z,82.60
2018-03-17T02:14:19.010Z,82.80
2018-03-17T02:16:47.183Z,82.80
2018-03-17T02:19:16.051Z,82.70
2018-03-17T02:21:44.176Z,82.70
2018-03-17T02:24:12.286Z,82.80
2018-03-17T02:26:41.216Z,83.40
2018-03-17T02:29:09.378Z,83.40
2018-03-17T02:31:38.244Z,83.10
2018-03-17T02:34:07.158Z,82.90
2018-03-17T02:36:35.331Z,82.90
2018-03-17T02:39:04.198Z,82.60
2018-03-17T02:41:32.350Z,82.50
2018-03-17T02:44:00.462Z,83.00
2018-03-17T02:46:28.635Z,83.00
2018-03-17T02:48:57.516Z,82.60
2018-03-17T02:51:25.697Z,82.50
2018-03-17T02:53:54.542Z,83.00
2018-03-17T02:56:23.428Z,83.60
2018-03-17T02:58:51.647Z,83.30
2018-03-17T03:01:19.829Z,83.30
2018-03-17T03:03:47.961Z,83.20
2018-03-17T03:06:16.885Z,83.60
2018-03-17T03:08:44.988Z,83.60
2018-03-17T03:11:13.227Z,83.80
2018-03-17T03:13:41.403Z,83.80
2018-03-17T03:16:10.277Z,84.10
2018-03-17T03:18:38.393Z,84.10
2018-03-17T03:21:06.533Z,84.00
2018-03-17T03:23:34.642Z,84.00
2018-03-17T03:26:02.878Z,84.10
2018-03-17T03:28:31.749Z,84.30
2018-03-17T03:30:59.866Z,84.30
2018-03-17T03:33:28.003Z,84.00
2018-03-17T03:35:56.145Z,84.00
2018-03-17T03:38:25.033Z,84.00
2018-03-17T03:40:54.036Z,83.90
2018-03-17T03:43:22.916Z,83.60
2018-03-17T03:45:51.851Z,83.50
2018-03-17T03:48:19.976Z,83.50
2018-03-17T03:50:48.968Z,83.40
2018-03-17T03:53:17.906Z,83.50
2018-03-17T03:55:45.996Z,83.50
2018-03-17T03:58:14.116Z,83.50
2018-03-17T04:00:43.083Z,83.60
2018-03-17T04:03:11.306Z,83.60
2018-03-17T04:05:40.172Z,83.90
2018-03-17T04:08:09.042Z,84.00
2018-03-17T04:10:37.929Z,84.20
2018-03-17T04:13:06.032Z,84.20
2018-03-17T04:15:34.189Z,84.30
2018-03-17T04:18:03.068Z,83.90
2018-03-17T04:20:31.957Z,84.00
2018-03-17T04:23:00.884Z,84.60
2018-03-17T04:25:29.724Z,84.00
2018-03-17T04:27:57.948Z,84.00
2018-03-17T04:30:26.937Z,84.20
2018-03-17T04:32:55.782Z,84.90
2018-03-17T04:35:24.985Z,85.50
2018-03-17T04:37:53.918Z,86.30
2018-03-17T04:40:22.040Z,85.70
2018-03-17T04:42:50.165Z,86.00
2018-03-17T04:45:18.276Z,85.90
2018-03-17T04:47:46.402Z,85.80
2018-03-17T04:50:14.504Z,85.80
2018-03-17T04:52:42.625Z,85.80
2018-03-17T04:55:10.814Z,85.80
2018-03-17T04:57:39.695Z,85.90
2018-03-17T05:00:08.559Z,85.80
2018-03-17T05:02:37.482Z,85.70
2018-03-17T05:05:06.376Z,85.70
2018-03-17T05:07:34.546Z,85.70
2018-03-17T05:10:03.437Z,86.00
2018-03-17T05:12:31.608Z,86.00
2018-03-17T05:15:00.497Z,85.70
2018-03-17T05:17:28.640Z,85.70
2018-03-17T05:19:57.563Z,85.20
2018-03-17T05:22:25.734Z,85.10
2018-03-17T05:24:54.593Z,85.10
2018-03-17T05:27:23.512Z,85.30
2018-03-17T05:29:52.388Z,85.50
2018-03-17T05:32:20.501Z,85.50
2018-03-17T05:34:48.642Z,85.40
2018-03-17T05:37:16.816Z,85.30
2018-03-17T05:39:45.666Z,84.90
2018-03-17T05:42:14.552Z,84.60
2018-03-17T05:44:43.487Z,84.30
2018-03-17T05:47:11.658Z,84.30
2018-03-17T05:49:39.782Z,84.10
2018-03-17T05:52:08.002Z,84.10
2018-03-17T05:54:36.113Z,84.30
2018-03-17T05:57:04.233Z,84.40
2018-03-17T05:59:32.420Z,84.30
2018-03-17T06:02:01.314Z,83.70
2018-03-17T06:04:29.481Z,83.70
2018-03-17T06:06:57.586Z,83.90
2018-03-17T06:09:25.793Z,84.20
2018-03-17T06:11:54.673Z,83.80
2018-03-17T06:14:22.782Z,83.80
2018-03-17T06:16:50.959Z,83.90
2018-03-17T06:19:19.949Z,83.70
2018-03-17T06:21:48.843Z,83.70
2018-03-17T06:24:17.689Z,83.40
2018-03-17T06:26:46.618Z,83.20
2018-03-17T06:29:14.733Z,83.10
2018-03-17T06:31:44.469Z,83.00
2018-03-17T06:34:13.349Z,83.00
2018-03-17T06:36:42.993Z,83.00
2018-03-17T06:39:11.168Z,82.90
2018-03-17T06:41:40.057Z,82.70
2018-03-17T06:44:08.188Z,82.70
2018-03-17T06:46:37.087Z,82.50
2018-03-17T06:49:06.056Z,82.00
2018-03-17T06:51:34.174Z,82.00
2018-03-17T06:54:02.353Z,82.00
2018-03-17T06:56:30.539Z,81.30
2018-03-17T06:58:58.654Z,81.40
2018-03-17T07:01:26.893Z,81.30
2018-03-17T07:03:55.833Z,81.80
2018-03-17T07:06:24.745Z,81.50
2018-03-17T07:08:52.906Z,81.50
2018-03-17T07:11:21.881Z,82.20
2018-03-17T07:13:50.793Z,82.40
2018-03-17T07:16:20.621Z,82.40
2018-03-17T07:18:48.729Z,82.30
2018-03-17T07:21:16.949Z,82.50
2018-03-17T07:23:45.857Z,83.20
2018-03-17T07:26:13.989Z,83.20
2018-03-17T07:28:42.881Z,83.00
2018-03-17T07:31:11.880Z,83.60
2018-03-17T07:33:40.788Z,84.00
2018-03-17T07:36:08.938Z,83.80
2018-03-17T07:38:37.805Z,84.40
2018-03-17T07:41:05.984Z,84.40
2018-03-17T07:43:34.206Z,84.60
2018-03-17T07:46:02.320Z,84.90
2018-03-17T07:48:30.551Z,85.20
2018-03-17T07:50:58.723Z,85.40
2018-03-17T07:53:26.865Z,85.40
2018-03-17T07:55:55.856Z,85.60
2018-03-17T07:58:24.770Z,85.70
2018-03-17T08:00:52.901Z,85.70
2018-03-17T08:03:21.140Z,86.20
2018-03-17T08:05:49.277Z,86.30
2018-03-17T08:08:18.174Z,86.50
2018-03-17T08:10:47.076Z,86.30
2018-03-17T08:13:15.209Z,86.30
2018-03-17T08:15:43.360Z,86.00
2018-03-17T08:18:11.503Z,86.10
2018-03-17T08:20:39.615Z,85.90
2018-03-17T08:23:07.767Z,85.80
2018-03-17T08:25:35.979Z,85.80
2018-03-17T08:28:04.865Z,85.90
2018-03-17T08:30:33.871Z,85.30
2018-03-17T08:33:02.051Z,85.30
2018-03-17T08:35:30.233Z,85.10
2018-03-17T08:37:58.353Z,85.20
2018-03-17T08:40:26.580Z,85.30
2018-03-17T08:42:55.474Z,85.50
2018-03-17T08:45:23.618Z,85.50
2018-03-17T08:47:52.576Z,86.00
2018-03-17T08:50:20.806Z,86.00
2018-03-17T08:52:48.993Z,86.10
2018-03-17T08:55:17.256Z,86.10
2018-03-17T08:57:45.354Z,86.10
2018-03-17T09:00:13.529Z,85.90
2018-03-17T09:02:41.771Z,85.80
2018-03-17T09:05:09.889Z,86.00
2018-03-17T09:07:39.554Z,86.10
2018-03-17T09:10:07.724Z,86.10
2018-03-17T09:12:36.715Z,86.20
2018-03-17T09:15:05.625Z,86.50
2018-03-17T09:17:33.779Z,86.50
2018-03-17T09:20:02.778Z,86.90
2018-03-17T09:22:31.047Z,86.80
2018-03-17T09:24:59.225Z,87.20
2018-03-17T09:27:32.364Z,87.20
2018-03-17T09:30:00.666Z,87.40
2018-03-17T09:32:28.862Z,88.00
2018-03-17T09:34:56.985Z,86.90
2018-03-17T09:37:25.203Z,86.70
2018-03-17T09:39:54.201Z,86.50
2018-03-17T09:42:22.318Z,86.50
2018-03-17T09:44:51.259Z,86.70
2018-03-17T09:47:19.381Z,86.70
2018-03-17T09:49:47.534Z,86.80
2018-03-17T09:52:15.673Z,87.10
2018-03-17T09:54:43.843Z,87.10
2018-03-17T09:57:11.947Z,87.20
2018-03-17T09:59:40.096Z,87.30
2018-03-17T10:02:08.240Z,87.00
2018-03-17T10:04:37.259Z,86.90
2018-03-17T10:07:05.407Z,86.90
2018-03-17T10:09:34.390Z,86.90
2018-03-17T10:12:03.386Z,87.20
2018-03-17T10:14:32.279Z,87.70
2018-03-17T10:17:01.292Z,87.80
2018-03-17T10:19:29.458Z,87.80
2018-03-17T10:21:58.466Z,87.70
2018-03-17T10:24:26.737Z,87.70
2018-03-17T10:26:54.909Z,87.70
2018-03-17T10:29:23.086Z,87.80
2018-03-17T10:31:51.945Z,87.90
2018-03-17T10:34:20.070Z,87.90
2018-03-17T10:36:48.204Z,88.20
2018-03-17T10:39:16.342Z,88.60
2018-03-17T10:41:45.268Z,88.30
2018-03-17T10:44:14.119Z,88.40
2018-03-17T10:46:43.069Z,88.30
2018-03-17T10:49:11.325Z,88.30
2018-03-17T10:51:39.437Z,88.20
2018-03-17T10:54:07.598Z,88.40
2018-03-17T10:56:35.726Z,88.60
2018-03-17T10:59:03.867Z,88.80
2018-03-17T11:01:38.457Z,89.00
2018-03-17T11:04:06.584Z,88.70
2018-03-17T11:06:34.785Z,88.90
2018-03-17T11:09:02.895Z,89.00
2018-03-17T11:11:32.558Z,89.50
2018-03-17T11:14:00.809Z,89.40
2018-03-17T11:16:29.005Z,89.50
2018-03-17T11:18:57.166Z,89.60
2018-03-17T11:21:25.304Z,89.80
2018-03-17T11:23:53.437Z,89.80
2018-03-17T11:26:21.564Z,89.90
2018-03-17T11:28:50.505Z,90.20
2018-03-17T11:31:18.619Z,90.20
2018-03-17T11:33:47.549Z,90.20
2018-03-17T11:36:15.717Z,90.10
2018-03-17T11:38:43.889Z,90.10
2018-03-17T11:41:12.779Z,90.10
2018-03-17T11:43:40.910Z,90.10
2018-03-17T11:46:09.839Z,90.20
2018-03-17T11:48:38.021Z,90.20
2018-03-17T11:51:06.119Z,90.20
2018-03-17T11:53:34.361Z,90.10
2018-03-17T11:56:02.466Z,90.10
2018-03-17T11:58:30.705Z,90.20
2018-03-17T12:00:58.850Z,90.10
2018-03-17T12:03:27.738Z,90.20
2018-03-17T12:05:56.761Z,90.10
2018-03-17T12:08:24.933Z,90.10
2018-03-17T12:10:53.106Z,90.20
2018-03-17T12:13:22.105Z,90.40
2018-03-17T12:15:50.271Z,90.40
2018-03-17T12:18:18.411Z,90.50
2018-03-17T12:20:47.302Z,90.30
2018-03-17T12:23:16.435Z,90.30
2018-03-17T12:25:44.600Z,90.40
2018-03-17T12:28:12.732Z,90.40
2018-03-17T12:30:41.648Z,90.30
2018-03-17T12:33:09.938Z,90.30
2018-03-17T12:35:38.122Z,90.00
2018-03-17T12:38:06.224Z,89.80
2018-03-17T12:40:34.438Z,89.70
2018-03-17T12:43:02.594Z,89.90
2018-03-17T12:45:31.616Z,90.10
2018-03-17T12:47:59.736Z,90.10
2018-03-17T12:50:27.966Z,90.10
2018-03-17T12:52:56.215Z,90.20
2018-03-17T12:55:25.230Z,90.00
2018-03-17T12:57:54.129Z,90.10
2018-03-17T13:00:22.308Z,90.10
2018-03-17T13:02:50.510Z,90.20
2018-03-17T13:05:19.426Z,90.20
2018-03-17T13:07:48.302Z,90.20
2018-03-17T13:10:17.340Z,90.40
2018-03-17T13:12:45.456Z,90.30
2018-03-17T13:15:13.683Z,90.30
2018-03-17T13:17:41.856Z,90.20
2018-03-17T13:20:09.986Z,90.30
2018-03-17T13:25:46.619Z,90.20
2018-03-17T13:28:24.701Z,90.40
2018-03-17T13:30:52.895Z,90.50
2018-03-17T13:33:21.048Z,90.20
2018-03-17T13:36:01.327Z,90.30
2018-03-17T13:38:29.458Z,90.20
2018-03-17T13:40:57.597Z,90.10
2018-03-17T13:43:25.852Z,90.30
2018-03-17T13:45:54.022Z,90.40
2018-03-17T13:48:22.190Z,90.10
2018-03-17T13:50:50.312Z,89.40
2018-03-17T13:53:18.471Z,89.00
2018-03-17T13:55:46.697Z,89.10
2018-03-17T13:58:14.880Z,89.00
2018-03-17T14:00:42.991Z,88.70
2018-03-17T14:03:11.133Z,88.20
2018-03-17T14:05:39.295Z,88.30
2018-03-17T14:08:07.441Z,88.00
2018-03-17T14:10:36.341Z,88.20
2018-03-17T14:13:05.229Z,87.80
2018-03-17T14:15:33.528Z,87.80
2018-03-17T14:18:01.792Z,87.60
2018-03-17T14:20:29.967Z,87.90
2018-03-17T14:22:58.961Z,87.90
2018-03-17T14:25:27.061Z,87.90
2018-03-17T14:27:55.202Z,87.50
2018-03-17T14:30:23.345Z,86.90
2018-03-17T14:32:52.340Z,86.40
2018-03-17T14:35:21.261Z,86.50
2018-03-17T14:37:49.394Z,86.40
2018-03-17T14:40:18.302Z,86.30
2018-03-17T14:42:47.216Z,86.00
2018-03-17T14:45:15.346Z,86.00
2018-03-17T14:47:44.338Z,86.60
2018-03-17T14:50:13.253Z,86.40
2018-03-17T14:52:41.442Z,86.40
2018-03-17T14:55:09.595Z,86.40
2018-03-17T14:57:38.606Z,85.90
2018-03-17T15:00:06.745Z,85.90
2018-03-17T15:02:35.661Z,86.60
2018-03-17T15:05:03.944Z,86.50
2018-03-17T15:07:32.081Z,86.10
2018-03-17T15:10:01.032Z,86.10
2018-03-17T15:12:29.216Z,85.50
2018-03-17T15:14:57.448Z,85.10
2018-03-17T15:17:25.707Z,84.60
2018-03-17T15:19:54.622Z,84.70
2018-03-17T15:22:22.886Z,84.70
2018-03-17T15:24:51.892Z,83.50
2018-03-17T15:27:20.015Z,83.50
2018-03-17T15:29:48.939Z,83.30
2018-03-17T15:32:17.063Z,83.30
2018-03-17T15:34:45.300Z,82.60
2018-03-17T15:37:13.411Z,83.10
2018-03-17T15:39:41.568Z,83.00
2018-03-17T15:42:09.815Z,83.10
2018-03-17T15:44:37.955Z,83.20
2018-03-17T15:47:06.899Z,82.20
2018-03-17T15:49:35.059Z,82.20
2018-03-17T15:52:03.213Z,82.20
2018-03-17T15:54:31.395Z,82.10
2018-03-17T15:56:59.555Z,81.90
2018-03-17T15:59:27.728Z,82.20
2018-03-17T16:01:55.894Z,82.40
2018-03-17T16:04:24.864Z,82.10
2018-03-17T16:06:53.781Z,81.10
2018-03-17T16:09:21.919Z,81.10
2018-03-17T16:11:50.885Z,81.40
2018-03-17T16:14:19.120Z,81.40
2018-03-17T16:16:47.238Z,81.10
2018-03-17T16:19:15.451Z,81.60
2018-03-17T16:21:43.602Z,81.40
2018-03-17T16:24:12.528Z,80.60
2018-03-17T16:26:40.794Z,80.60
2018-03-17T16:29:09.089Z,81.10
2018-03-17T16:31:37.266Z,80.70
2018-03-17T16:34:05.427Z,80.80
2018-03-17T16:36:33.623Z,80.60
2018-03-17T16:39:01.766Z,81.50
2018-03-17T16:41:30.001Z,81.10
2018-03-17T16:43:58.123Z,81.00
2018-03-17T16:46:26.389Z,81.60
2018-03-17T16:48:54.570Z,81.10
2018-03-17T16:51:22.716Z,80.10
2018-03-17T16:53:51.636Z,80.60
2018-03-17T16:56:19.767Z,80.60
2018-03-17T16:58:48.695Z,79.50
2018-03-17T17:01:16.876Z,79.50
2018-03-17T17:03:45.015Z,79.60
2018-03-17T17:06:13.176Z,79.80
2018-03-17T17:08:42.197Z,79.80
2018-03-17T17:11:10.382Z,79.80
2018-03-17T17:13:38.540Z,79.30
2018-03-17T17:16:06.714Z,79.50
2018-03-17T17:18:35.007Z,80.00
2018-03-17T17:21:03.159Z,79.60
2018-03-17T17:23:32.152Z,80.70
2018-03-17T17:26:01.044Z,80.50
2018-03-17T17:28:29.262Z,80.60
2018-03-17T17:30:57.513Z,80.40
2018-03-17T17:33:25.662Z,80.90
2018-03-17T17:35:53.832Z,80.50
2018-03-17T17:38:22.008Z,80.40
2018-03-17T17:40:50.106Z,80.10
2018-03-17T17:43:18.457Z,80.00
2018-03-17T17:45:46.631Z,80.70
2018-03-17T17:48:14.837Z,80.50
2018-03-17T17:50:42.923Z,80.30
2018-03-17T17:53:11.075Z,80.20
2018-03-17T17:55:40.141Z,80.30
2018-03-17T17:58:08.307Z,80.30
2018-03-17T18:00:37.194Z,80.20
2018-03-17T18:03:05.383Z,80.30
2018-03-17T18:05:33.547Z,80.50
2018-03-17T18:08:01.788Z,80.70
2018-03-17T18:10:29.993Z,80.50
2018-03-17T18:12:58.172Z,80.90
2018-03-17T18:15:26.311Z,80.90
2018-03-17T18:17:55.334Z,80.70
2018-03-17T18:20:23.497Z,80.70
2018-03-17T18:22:52.401Z,81.30
2018-03-17T18:25:20.562Z,81.30
2018-03-17T18:27:48.886Z,81.70
2018-03-17T18:30:17.830Z,81.50
2018-03-17T18:32:46.039Z,81.50
2018-03-17T18:35:14.291Z,82.20
2018-03-17T18:37:42.421Z,82.20
2018-03-17T18:40:11.332Z,82.30
2018-03-17T18:42:39.486Z,82.20
2018-03-17T18:45:08.511Z,81.90
2018-03-17T18:47:36.658Z,81.90
2018-03-17T18:50:05.672Z,83.10
2018-03-17T18:52:33.778Z,83.10
2018-03-17T18:55:03.450Z,83.40
2018-03-17T18:57:31.603Z,83.30
2018-03-17T18:59:59.796Z,83.60
2018-03-17T19:02:27.954Z,83.30
2018-03-17T19:04:56.874Z,82.50
2018-03-17T19:07:25.038Z,82.50
2018-03-17T19:09:53.190Z,83.10
2018-03-17T19:12:21.480Z,82.90
2018-03-17T19:14:49.656Z,82.90
2018-03-17T19:17:17.751Z,83.20
2018-03-17T19:19:45.908Z,83.40
2018-03-17T19:22:14.062Z,83.80
2018-03-17T19:24:42.199Z,83.80
2018-03-17T19:27:10.371Z,83.80
2018-03-17T19:29:39.293Z,83.70
2018-03-17T19:32:07.520Z,83.70
2018-03-17T19:34:35.722Z,83.40
2018-03-17T19:37:04.663Z,83.80
2018-03-17T19:39:32.789Z,83.80
2018-03-17T19:42:01.922Z,84.00
2018-03-17T19:44:30.158Z,83.90
2018-03-17T19:46:58.257Z,83.70
2018-03-17T19:49:26.418Z,84.30
2018-03-17T19:51:54.598Z,84.20
2018-03-17T19:54:22.773Z,84.40
2018-03-17T19:56:50.898Z,84.30
2018-03-17T19:59:19.039Z,84.30
2018-03-17T20:01:47.189Z,84.70
2018-03-17T20:04:15.356Z,84.80
2018-03-17T20:06:43.522Z,84.60
2018-03-17T20:09:11.705Z,84.80
2018-03-17T20:11:40.487Z,84.60
2018-03-17T20:14:08.658Z,84.60
2018-03-17T20:16:36.831Z,84.80
2018-03-17T20:19:05.745Z,85.00
2018-03-17T20:21:34.093Z,85.00
2018-03-17T20:24:03.197Z,85.00
2018-03-17T20:26:31.335Z,85.00
2018-03-17T20:29:00.369Z,84.30
2018-03-17T20:31:28.510Z,84.30
2018-03-17T20:33:56.706Z,84.50
2018-03-17T20:36:24.989Z,84.70
2018-03-17T20:38:53.371Z,84.60
2018-03-17T20:41:21.496Z,84.90
2018-03-17T20:43:49.711Z,85.50
2018-03-17T20:46:17.959Z,85.10
2018-03-17T20:48:46.152Z,84.90
2018-03-17T20:51:14.290Z,85.00
2018-03-17T20:53:42.407Z,85.30
2018-03-17T20:56:10.668Z,85.00
2018-03-17T20:58:38.821Z,85.80
2018-03-17T21:01:06.978Z,85.90
2018-03-17T21:03:35.143Z,86.00
2018-03-17T21:06:03.357Z,86.00
2018-03-17T21:08:31.619Z,85.70
2018-03-17T21:10:59.728Z,86.00
2018-03-17T21:13:27.851Z,85.90
2018-03-17T21:15:56.766Z,84.90
2018-03-17T21:18:25.696Z,84.40
2018-03-17T21:20:53.869Z,84.30
2018-03-17T21:23:22.026Z,84.20
2018-03-17T21:25:50.282Z,83.80
2018-03-17T21:28:18.428Z,84.10
2018-03-17T21:30:47.344Z,83.40
2018-03-17T21:33:15.509Z,83.30
2018-03-17T21:35:43.616Z,84.20
2018-03-17T21:38:11.774Z,83.60
2018-03-17T21:40:39.926Z,83.70
2018-03-17T21:43:21.625Z,85.10
2018-03-17T21:45:49.900Z,86.30
2018-03-17T21:48:18.135Z,85.20
2018-03-17T21:50:46.234Z,85.00
2018-03-17T21:53:14.400Z,85.30
2018-03-17T21:55:42.573Z,86.60
2018-03-17T21:58:10.727Z,86.00
2018-03-17T22:00:39.801Z,85.80
2018-03-17T22:03:07.939Z,85.70
2018-03-17T22:05:36.092Z,86.50
2018-03-17T22:08:04.232Z,86.20
2018-03-17T22:10:33.266Z,85.60
2018-03-17T22:13:01.423Z,85.60
2018-03-17T22:15:29.701Z,86.00
2018-03-17T22:17:57.804Z,85.60
2018-03-17T22:20:25.983Z,84.50
2018-03-17T22:22:54.106Z,84.30
2018-03-17T22:25:22.259Z,85.40
2018-03-17T22:27:51.277Z,85.20
2018-03-17T22:30:20.169Z,86.40
2018-03-17T22:32:48.302Z,86.50
2018-03-17T22:35:17.233Z,87.10
2018-03-17T22:37:45.402Z,87.10
2018-03-17T22:40:13.676Z,86.50
2018-03-17T22:42:42.563Z,88.90
2018-03-17T22:45:10.846Z,88.90
2018-03-17T22:47:38.978Z,89.90
2018-03-17T22:50:07.207Z,88.90
2018-03-17T22:52:35.467Z,88.50
2018-03-17T22:55:03.574Z,88.50
2018-03-17T22:57:31.767Z,88.20
2018-03-17T23:00:00.081Z,88.80
2018-03-17T23:02:28.205Z,87.30
2018-03-17T23:04:57.145Z,86.10
2018-03-17T23:07:25.329Z,85.40
2018-03-17T23:09:53.588Z,85.00
2018-03-17T23:12:22.583Z,85.30
2018-03-17T23:14:50.753Z,85.30
2018-03-17T23:17:20.229Z,85.50
2018-03-17T23:19:49.154Z,85.20
2018-03-17T23:22:17.305Z,85.20
2018-03-17T23:24:45.506Z,84.60
2018-03-17T23:27:13.595Z,83.70
2018-03-17T23:29:41.740Z,83.70
2018-03-17T23:32:09.898Z,84.20
2018-03-17T23:34:38.876Z,83.40
2018-03-17T23:37:07.071Z,83.40
2018-03-17T23:39:35.201Z,81.70
2018-03-17T23:42:03.382Z,82.10
2018-03-17T23:44:31.496Z,82.90
2018-03-17T23:46:59.762Z,81.80
2018-03-17T23:49:28.637Z,81.60
2018-03-17T23:51:56.775Z,81.60
2018-03-17T23:54:25.673Z,82.30
2018-03-17T23:56:54.717Z,82.20
2018-03-17T23:59:22.816Z,82.10
